Voreifelwetter - Wetterstation Drove - Standort 5043'47" - 0630'49"
Wetterdaten: aktuell Mittwoch, 23.06.2021 14:30
Datum Zeit Temp. A. Feuchte A. Luftdruck Regen Wind Richtung Richtung Sonnenschein Helligkeit Taupunkt Windchill
23.06.2021 14:30 16,0 C 87 % 1018,4 hPa 0,0 mm 8,6 km/h (2 Bft) N67.5 350 0 min 29,6 klux 13,8 C 16,0 C
23.06.2021 14:15 15,8 C 87 % 1018,4 hPa 0,0 mm 8,9 km/h (2 Bft) N-NW45 330 0 min 18,5 klux 13,6 C 15,8 C
23.06.2021 14:00 15,6 C 88 % 1018,4 hPa 0,0 mm 8,1 km/h (2 Bft) N-NW22.5 330 0 min 16,3 klux 13,6 C 15,6 C
23.06.2021 13:45 15,4 C 88 % 1018,4 hPa 0,0 mm 10,4 km/h (2 Bft) N-NW45 340 0 min 19,1 klux 13,4 C 15,4 C
23.06.2021 13:30 15,6 C 88 % 1018,4 hPa 0,0 mm 11,9 km/h (2 Bft) NW45 325 0 min 21,7 klux 13,6 C 15,6 C
23.06.2021 13:15 16,0 C 89 % 1018,4 hPa 0,0 mm 11,0 km/h (2 Bft) N-NW45 345 0 min 42,2 klux 14,2 C 16,0 C
23.06.2021 13:00 15,4 C 91 % 1018,4 hPa 0,0 mm 10,0 km/h (2 Bft) N67.5 350 0 min 46,1 klux 13,9 C 15,4 C
23.06.2021 12:45 15,0 C 91 % 1018,5 hPa 0,0 mm 9,0 km/h (2 Bft) N22.5 360 0 min 28,6 klux 13,5 C 15,0 C
23.06.2021 12:30 14,6 C 91 % 1018,5 hPa 0,0 mm 7,2 km/h (2 Bft) N-NW22.5 330 0 min 15,6 klux 13,1 C 14,6 C
23.06.2021 12:15 14,8 C 93 % 1018,5 hPa 0,0 mm 10,6 km/h (2 Bft) N-NW22.5 330 0 min 17,8 klux 13,7 C 14,8 C
23.06.2021 12:00 14,6 C 94 % 1018,5 hPa 0,0 mm 7,7 km/h (2 Bft) NW22.5 325 0 min 19,6 klux 13,6 C 14,6 C
23.06.2021 11:45 14,4 C 94 % 1018,5 hPa 0,0 mm 8,5 km/h (2 Bft) N-NW45 345 0 min 13,4 klux 13,4 C 14,4 C
23.06.2021 11:30 14,5 C 95 % 1018,5 hPa 0,0 mm 8,9 km/h (2 Bft) N-NW22.5 335 0 min 16,1 klux 13,7 C 14,5 C
23.06.2021 11:15 14,4 C 96 % 1018,5 hPa 0,0 mm 6,5 km/h (2 Bft) N-NW22.5 340 0 min 18,5 klux 13,8 C 14,4 C
23.06.2021 11:00 14,0 C 95 % 1018,5 hPa 0,0 mm 8,2 km/h (2 Bft) N-NW 330 0 min 12,7 klux 13,2 C 14,0 C
23.06.2021 10:45 13,7 C 96 % 1018,6 hPa 0,0 mm 8,1 km/h (2 Bft) N-NW22.5 335 0 min 9,7 klux 13,1 C 13,7 C
23.06.2021 10:30 13,7 C 96 % 1018,6 hPa 0,0 mm 8,3 km/h (2 Bft) N22.5 350 0 min 11,8 klux 13,1 C 13,7 C
23.06.2021 10:15 13,6 C 96 % 1018,6 hPa 0,0 mm 8,5 km/h (2 Bft) N-NW22.5 345 0 min 10,9 klux 13,0 C 13,6 C
23.06.2021 10:00 13,4 C 96 % 1018,6 hPa 0,0 mm 6,8 km/h (2 Bft) N45 355 0 min 10,2 klux 12,8 C 13,4 C
23.06.2021 09:45 13,2 C 96 % 1017,6 hPa 0,0 mm 5,8 km/h (2 Bft) N-NW22.5 340 0 min 9,0 klux 12,6 C 13,2 C
23.06.2021 09:30 13,3 C 96 % 1017,6 hPa 0,0 mm 9,3 km/h (2 Bft) N-NW22.5 340 0 min 8,08 klux 12,7 C 13,3 C
23.06.2021 09:15 13,2 C 96 % 1017,6 hPa 0,0 mm 8,5 km/h (2 Bft) N-NW22.5 340 0 min 6,70 klux 12,6 C 13,2 C
23.06.2021 09:00 13,2 C 97 % 1017,6 hPa 0,0 mm 8,1 km/h (2 Bft) N22.5 350 0 min 6,38 klux 12,7 C 13,2 C
23.06.2021 08:45 13,2 C 97 % 1017,6 hPa 0,0 mm 8,2 km/h (2 Bft) N-NW22.5 330 0 min 5,13 klux 12,7 C 13,2 C
23.06.2021 08:30 13,1 C 97 % 1017,6 hPa 0,0 mm 6,8 km/h (2 Bft) N-NW22.5 330 0 min 7,14 klux 12,6 C 13,1 C
23.06.2021 08:15 13,0 C 97 % 1017,6 hPa 0,0 mm 8,6 km/h (2 Bft) N-NW22.5 330 0 min 5,53 klux 12,5 C 13,0 C
23.06.2021 08:00 12,8 C 97 % 1017,6 hPa 0,0 mm 9,0 km/h (2 Bft) N-NW22.5 330 0 min 4,33 klux 12,3 C 12,8 C
23.06.2021 07:45 12,9 C 97 % 1017,6 hPa 0,0 mm 8,3 km/h (2 Bft) N-NW22.5 335 0 min 2,32 klux 12,4 C 12,9 C
23.06.2021 07:30 12,8 C 97 % 1017,6 hPa 0,0 mm 3,6 km/h (1 Bft) N-NW22.5 335 0 min 1,92 klux 12,3 C 12,8 C
23.06.2021 07:15 12,8 C 97 % 1017,6 hPa 0,0 mm 6,1 km/h (2 Bft) N-NW 340 0 min 1,25 klux 12,3 C 12,8 C
23.06.2021 07:00 12,8 C 97 % 1017,6 hPa 0,0 mm 3,7 km/h (1 Bft) N-NW 340 0 min 846 lux 12,3 C 12,8 C
23.06.2021 06:45 12,7 C 97 % 1017,6 hPa 0,0 mm 7,2 km/h (2 Bft) N-NW22.5 345 0 min 1,03 klux 12,2 C 12,7 C
23.06.2021 06:30 12,8 C 97 % 1016,6 hPa 0,0 mm 3,7 km/h (1 Bft) N-NW22.5 340 0 min 633 lux 12,3 C 12,8 C
23.06.2021 06:15 12,7 C 97 % 1016,6 hPa 0,0 mm 4,2 km/h (1 Bft) N22.5 360 0 min 309 lux 12,2 C 12,7 C
23.06.2021 06:00 12,7 C 97 % 1016,6 hPa 0,0 mm 0,6 km/h (0 Bft) N45 360 0 min 180 lux 12,2 C 12,7 C
23.06.2021 05:45 12,7 C 97 % 1016,6 hPa 0,0 mm 0,5 km/h (0 Bft) N 355 0 min 90 lux 12,2 C 12,7 C
23.06.2021 05:30 12,7 C 97 % 1016,6 hPa 0,0 mm 1,2 km/h (1 Bft) N22.5 360 0 min 43 lux 12,2 C 12,7 C
23.06.2021 05:15 12,7 C 97 % 1016,6 hPa 0,0 mm 5,2 km/h (1 Bft) N-NW22.5 335 0 min 0 lux 12,2 C 12,7 C
23.06.2021 05:00 12,8 C 97 % 1016,6 hPa 0,0 mm 2,5 km/h (1 Bft) N-NW45 340 0 min 0 lux 12,3 C 12,8 C
23.06.2021 04:45 12,7 C 96 % 1016,6 hPa 0,0 mm 6,7 km/h (2 Bft) N-NW67.5 345 0 min 0 lux 12,1 C 12,7 C
23.06.2021 04:30 12,8 C 96 % 1016,6 hPa 0,1 mm 2,1 km/h (1 Bft) N 350 0 min 0 lux 12,2 C 12,8 C
23.06.2021 04:15 12,8 C 96 % 1016,6 hPa 0,0 mm 0,4 km/h (0 Bft) N-NW45 335 0 min 0 lux 12,2 C 12,8 C
23.06.2021 04:00 13,0 C 96 % 1016,6 hPa 0,0 mm 1,8 km/h (1 Bft) N-NW45 340 0 min 0 lux 12,4 C 13,0 C
23.06.2021 03:45 12,9 C 96 % 1016,6 hPa 0,0 mm 7,4 km/h (2 Bft) N-NW67.5 340 0 min 0 lux 12,3 C 12,9 C
23.06.2021 03:30 13,0 C 96 % 1016,6 hPa 0,1 mm 4,2 km/h (1 Bft) NW67.5 320 0 min 0 lux 12,4 C 13,0 C
23.06.2021 03:15 13,1 C 96 % 1016,6 hPa 0,0 mm 4,0 km/h (1 Bft) N-NW22.5 340 0 min 0 lux 12,5 C 13,1 C
23.06.2021 03:00 13,2 C 96 % 1016,6 hPa 0,1 mm 4,7 km/h (1 Bft) N-NW45 340 0 min 0 lux 12,6 C 13,2 C
23.06.2021 02:45 13,3 C 96 % 1016,6 hPa 0,2 mm 3,7 km/h (1 Bft) N-NW22.5 345 0 min 0 lux 12,7 C 13,3 C
23.06.2021 02:30 13,3 C 96 % 1016,6 hPa 0,2 mm 2,5 km/h (1 Bft) NW45 305 0 min 0 lux 12,7 C 13,3 C
23.06.2021 02:15 13,4 C 96 % 1016,5 hPa 0,1 mm 0,5 km/h (0 Bft) N-NW22.5 340 0 min 0 lux 12,8 C 13,4 C
23.06.2021 02:00 13,4 C 96 % 1016,5 hPa 0,1 mm 0,9 km/h (0 Bft) N45 350 0 min 0 lux 12,8 C 13,4 C
23.06.2021 01:45 13,4 C 96 % 1016,5 hPa 0,0 mm 5,8 km/h (2 Bft) N-NW22.5 345 0 min 0 lux 12,8 C 13,4 C
23.06.2021 01:30 13,4 C 96 % 1015,5 hPa 0,0 mm 7,4 km/h (2 Bft) N67.5 355 0 min 0 lux 12,8 C 13,4 C
23.06.2021 01:15 13,4 C 96 % 1015,5 hPa 0,0 mm 0,7 km/h (0 Bft) N-NW67.5 345 0 min 0 lux 12,8 C 13,4 C
23.06.2021 01:00 13,4 C 96 % 1015,5 hPa 0,0 mm 0,6 km/h (0 Bft) N-NW67.5 345 0 min 0 lux 12,8 C 13,4 C
23.06.2021 00:45 13,5 C 95 % 1015,5 hPa 0,0 mm 6,1 km/h (2 Bft) N22.5 350 0 min 0 lux 12,7 C 13,5 C
23.06.2021 00:30 13,6 C 95 % 1015,5 hPa 0,2 mm 10,3 km/h (2 Bft) N45 350 0 min 0 lux 12,8 C 13,6 C
23.06.2021 00:15 13,7 C 95 % 1016,5 hPa 0,1 mm 6,0 km/h (2 Bft) N45 350 0 min 0 lux 12,9 C 13,7 C
23.06.2021 00:00 13,6 C 95 % 1016,5 hPa 0,0 mm 0,0 km/h (0 Bft) N 10 0 min 0 lux 12,8 C 13,6 C
_ Min-Zeit 04:45 14:15 00:30 - 00:00 - - - - 04:45 04:45
Minimum _ 12,7 C 87 % 1015,5 hPa - 0,0 km/h (0 Bft) - - - - 12,1 C 12,7 C
_ Max-Zeit 13:15 05:00 10:00 00:30 13:30 - - 00:00 13:00 13:15 13:15
Maximum _ 16,0 C 97 % 1018,6 hPa 0,2 mm 11,9 km/h
NW (2 Bft)
- - 0 min 46,1 klux 14,2 C 16,0 C
Durchschnitt _ 13,6 C 95 % 1017,3 hPa #1,2 mm 6,0 km/h (2 Bft) N-NW - #0 min. 7,45 klux 12,8 C 13,6 C